PHN weather

St Clair County International Airport
Port Huron, Michigan, United States

Public forecast

Using degrees Fahrenheit for public forecast. Weather courtesy of forecast.io.

Current aviation weather report (METAR) for St Clair County International Airport

Retrieved 2020/01/19 06:35 UTC (20 minutes ago):

KPHN 190635Z AUTO 26011G20KT 220V290 10SM OVC021 M01/M06 A2971 RMK AO2

Closest aviation forecast (TAF) to St Clair County International Airport

Forecast is more than 6 hours old.

Closest forecast is Chris Hadfield Airport, 11.0 nm (20.4 km) ENE. Retrieved 2020/01/18 20:00 UTC (11 hours ago):

TAF CYZR 181942Z 1820/1903 19015G25KT 3SM -RA BR OVC006 TEMPO 1820/1823 6SM -RA BR OVC010 FM182300 22020G35KT 6SM -RA BR OVC015 TEMPO 1823/1903 3SM -RA BR OVC008 BECMG 1823/1901 26020G35KT RMK FCST BASED ON AUTO OBS NXT FCST WILL BE ISSUED AT 190845Z